Time;durP1;ratioP1;P1;durP2;ratioP2;P2;SDS_P1;SDS_P2;PMS_P1;PMS_P2;Temp;Humidity;BMP_temperature;BMP_pressure;BME280_temperature;BME280_humidity;BME280_pressure;Samples;Min_cycle;Max_cycle;Signal;HPM_P1;HPM_P2
2022/12/21 00:01:21;;;;;;;66.27;34.03;;;7.60;60.60;;;;;;4905390;29;20471;-86
2022/12/21 00:03:52;;;;;;;63.43;34.77;;;7.70;60.40;;;;;;4896508;29;20468;-87
2022/12/21 00:06:21;;;;;;;72.43;35.30;;;7.70;60.20;;;;;;4914781;29;20510;-86
2022/12/21 00:08:49;;;;;;;87.23;39.03;;;7.70;60.00;;;;;;4905609;29;21021;-87
2022/12/21 00:11:17;;;;;;;92.20;41.17;;;7.60;60.60;;;;;;4867843;29;20460;-87
2022/12/21 00:13:45;;;;;;;81.87;38.50;;;7.60;60.50;;;;;;4869551;29;20490;-87
2022/12/21 00:16:14;;;;;;;79.47;35.60;;;7.30;61.60;;;;;;4873754;29;20488;-86
2022/12/21 00:18:41;;;;;;;80.17;40.30;;;7.40;61.70;;;;;;4900226;29;20553;-88
2022/12/21 00:21:11;;;;;;;66.20;34.40;;;7.50;61.00;;;;;;4919977;29;20809;-87
2022/12/21 00:23:39;;;;;;;69.10;33.80;;;7.50;60.80;;;;;;4873672;29;20988;-84
2022/12/21 00:26:07;;;;;;;64.37;32.97;;;7.50;61.10;;;;;;4913525;29;20464;-87
2022/12/21 00:28:35;;;;;;;70.33;33.87;;;7.60;60.90;;;;;;4916704;29;20471;-87
2022/12/21 00:31:07;;;;;;;67.77;35.00;;;7.60;60.80;;;;;;4898105;29;20462;-86
2022/12/21 00:33:34;;;;;;;64.90;33.40;;;7.70;60.60;;;;;;4884827;29;21107;-86
2022/12/21 00:36:01;;;;;;;58.63;30.30;;;7.50;61.10;;;;;;4883722;29;20448;-87
2022/12/21 00:38:28;;;;;;;65.30;32.10;;;7.50;61.50;;;;;;4897400;29;20450;-86
2022/12/21 00:41:02;;;;;;;63.80;32.17;;;7.60;61.00;;;;;;4904995;29;20463;-87
2022/12/21 00:43:30;;;;;;;55.27;31.60;;;7.70;60.70;;;;;;4891429;29;20448;-87
2022/12/21 00:45:57;;;;;;;56.37;30.23;;;7.60;61.10;;;;;;4872939;29;20969;-86
2022/12/21 00:48:24;;;;;;;70.70;33.47;;;7.70;60.70;;;;;;4915104;29;20460;-85
2022/12/21 00:50:51;;;;;;;65.47;33.30;;;7.70;60.50;;;;;;4905119;29;20446;-87
2022/12/21 00:53:19;;;;;;;54.37;29.33;;;7.70;60.50;;;;;;4900246;29;20472;-87
2022/12/21 00:55:54;;;;;;;67.47;32.23;;;7.80;60.30;;;;;;4910406;29;20479;-87
2022/12/21 00:58:23;;;;;;;52.97;32.57;;;7.80;60.00;;;;;;4913412;29;20538;-84
2022/12/21 01:00:51;;;;;;;61.37;32.87;;;7.60;60.70;;;;;;4886405;29;20469;-87
2022/12/21 01:03:18;;;;;;;64.93;32.10;;;7.30;61.70;;;;;;4905259;29;21198;-87
2022/12/21 01:05:46;;;;;;;58.87;33.13;;;7.10;62.80;;;;;;4898780;29;20567;-85
2022/12/21 01:08:13;;;;;;;54.50;30.87;;;7.00;63.40;;;;;;4897234;29;20569;-85
2022/12/21 01:10:40;;;;;;;61.10;31.77;;;7.10;63.40;;;;;;4897927;29;20480;-86
2022/12/21 01:13:08;;;;;;;50.97;30.83;;;7.10;63.60;;;;;;4899219;29;20511;-86
2022/12/21 01:15:40;;;;;;;67.53;30.50;;;7.30;62.80;;;;;;4893666;29;21103;-87
2022/12/21 01:18:07;;;;;;;62.90;32.00;;;7.50;61.90;;;;;;4928966;28;20819;-85
2022/12/21 01:20:34;;;;;;;82.77;34.97;;;7.60;61.70;;;;;;4898723;29;20845;-88
2022/12/21 01:23:01;;;;;;;64.20;31.67;;;7.50;62.10;;;;;;4904672;29;20464;-87
2022/12/21 01:25:28;;;;;;;75.47;31.87;;;7.60;62.00;;;;;;4905293;29;20478;-87
2022/12/21 01:27:55;;;;;;;61.40;31.50;;;7.40;62.30;;;;;;4902725;29;20451;-87
2022/12/21 01:30:22;;;;;;;65.57;32.20;;;7.50;62.30;;;;;;4864175;29;20458;-87
2022/12/21 01:32:50;;;;;;;54.83;30.40;;;7.60;61.90;;;;;;4891490;29;20476;-87
2022/12/21 01:35:18;;;;;;;53.70;29.87;;;7.70;61.50;;;;;;4898698;29;20526;-85
2022/12/21 01:37:45;;;;;;;62.20;31.50;;;7.80;61.00;;;;;;4901834;29;20452;-87
2022/12/21 01:40:13;;;;;;;57.03;28.30;;;7.60;61.50;;;;;;4911494;29;20478;-86
2022/12/21 01:42:40;;;;;;;59.17;31.40;;;7.40;62.10;;;;;;4889292;29;20958;-82
2022/12/21 01:45:18;;;;;;;68.30;33.47;;;7.30;62.60;;;;;;4884200;29;20483;-87
2022/12/21 01:47:49;;;;;;;62.57;30.50;;;7.30;62.70;;;;;;4889578;29;20452;-85
2022/12/21 01:50:38;;;;;;;65.57;30.57;;;7.50;62.20;;;;;;4881058;29;20470;-86
2022/12/21 01:53:12;;;;;;;66.70;34.23;;;7.60;61.50;;;;;;4897802;29;21004;-87
2022/12/21 01:55:39;;;;;;;57.73;27.80;;;7.50;61.40;;;;;;4868803;29;20597;-87
2022/12/21 01:58:08;;;;;;;61.77;30.63;;;7.10;62.60;;;;;;4899206;29;20462;-86
2022/12/21 02:00:36;;;;;;;56.10;29.43;;;7.20;63.10;;;;;;4907634;29;21724;-86
2022/12/21 02:03:07;;;;;;;62.33;31.77;;;7.40;62.30;;;;;;4886562;29;20462;-87
2022/12/21 02:05:41;;;;;;;51.97;29.30;;;7.60;61.70;;;;;;4907399;29;20472;-87
2022/12/21 02:08:08;;;;;;;62.57;34.10;;;7.50;61.80;;;;;;4901627;29;20498;-87
2022/12/21 02:10:36;;;;;;;66.50;33.73;;;7.50;61.50;;;;;;4899887;29;20498;-86
2022/12/21 02:13:07;;;;;;;69.50;32.00;;;7.50;61.70;;;;;;4888460;29;20482;-84
2022/12/21 02:15:48;;;;;;;69.13;35.03;;;7.40;62.30;;;;;;4907785;29;20534;-86
2022/12/21 02:18:28;;;;;;;69.10;34.43;;;7.50;62.00;;;;;;4900743;29;20471;-82
2022/12/21 02:21:21;;;;;;;67.57;33.07;;;7.60;61.30;;;;;;4892705;29;20456;-87
2022/12/21 02:24:18;;;;;;;67.40;33.40;;;7.70;61.10;;;;;;4915885;29;21255;-87
2022/12/21 02:27:14;;;;;;;60.20;33.20;;;7.40;61.90;;;;;;4903553;29;20458;-86
2022/12/21 02:30:13;;;;;;;67.70;33.27;;;7.30;62.50;;;;;;4884845;29;20456;-87
2022/12/21 02:33:06;;;;;;;67.40;33.73;;;7.30;63.00;;;;;;4914436;29;20455;-84
2022/12/21 02:35:46;;;;;;;65.70;32.47;;;7.50;62.40;;;;;;4922528;29;20460;-85
2022/12/21 02:38:28;;;;;;;64.00;33.03;;;7.60;61.30;;;;;;4915842;29;20976;-86
2022/12/21 02:41:03;;;;;;;63.80;31.73;;;7.70;61.00;;;;;;4899155;29;20459;-87
2022/12/21 02:46:33;;;;;;;69.67;34.17;;;7.80;60.30;;;;;;4914060;29;21091;-87
2022/12/21 02:49:06;;;;;;;68.33;33.00;;;7.90;60.40;;;;;;4915280;29;20464;-87
2022/12/21 02:51:39;;;;;;;61.03;31.37;;;7.80;60.20;;;;;;4902517;29;20447;-86
2022/12/21 02:54:08;;;;;;;59.63;30.47;;;7.80;60.50;;;;;;4901852;29;21026;-87
2022/12/21 02:56:35;;;;;;;55.73;31.23;;;7.60;61.40;;;;;;4900312;29;20459;-87
2022/12/21 02:59:03;;;;;;;69.83;33.30;;;7.60;61.80;;;;;;4875744;29;20962;-86
2022/12/21 03:01:51;;;;;;;60.43;30.40;;;7.70;61.30;;;;;;4913273;29;20487;-86
2022/12/21 03:04:43;;;;;;;56.47;29.60;;;7.80;60.80;;;;;;4930867;29;20472;-87
2022/12/21 03:07:24;;;;;;;59.07;28.50;;;7.90;60.50;;;;;;4871654;29;20460;-87
2022/12/21 03:09:59;;;;;;;61.63;31.00;;;7.80;60.80;;;;;;4897686;29;21037;-87
2022/12/21 03:12:34;;;;;;;63.07;32.57;;;7.80;60.70;;;;;;4875704;29;20470;-87
2022/12/21 03:15:14;;;;;;;64.30;30.60;;;7.90;60.60;;;;;;4912989;29;20507;-87
2022/12/21 03:17:46;;;;;;;57.73;29.87;;;7.90;60.40;;;;;;4899384;29;20499;-86
2022/12/21 03:20:24;;;;;;;62.90;30.37;;;8.00;60.30;;;;;;4915585;29;20455;-87
2022/12/21 03:23:00;;;;;;;59.47;31.17;;;8.00;60.00;;;;;;4885571;29;20443;-87
2022/12/21 03:25:30;;;;;;;50.73;28.83;;;8.00;60.10;;;;;;4873281;29;20476;-85
2022/12/21 03:28:04;;;;;;;58.30;32.57;;;8.00;60.00;;;;;;4902160;29;20459;-87
2022/12/21 03:30:38;;;;;;;57.70;30.40;;;7.80;60.80;;;;;;4922318;29;20439;-86
2022/12/21 03:33:08;;;;;;;72.90;33.57;;;7.60;61.90;;;;;;4904901;29;20459;-87
2022/12/21 03:35:41;;;;;;;56.30;30.03;;;7.70;61.40;;;;;;4927869;28;20507;-86
2022/12/21 03:38:16;;;;;;;59.47;30.63;;;7.80;61.00;;;;;;4898386;29;20459;-87
2022/12/21 03:40:47;;;;;;;55.63;30.97;;;7.90;60.70;;;;;;4912177;29;20546;-87
2022/12/21 03:43:22;;;;;;;49.27;28.10;;;7.90;60.40;;;;;;4914023;29;20455;-87
2022/12/21 03:45:53;;;;;;;49.93;30.40;;;7.90;60.40;;;;;;4913923;29;20471;-87
2022/12/21 03:48:25;;;;;;;54.60;28.90;;;7.90;60.10;;;;;;4904639;29;20490;-86
2022/12/21 03:50:57;;;;;;;52.40;29.07;;;8.00;60.20;;;;;;4901302;29;20985;-87
2022/12/21 03:53:33;;;;;;;54.40;30.37;;;8.00;60.00;;;;;;4920820;29;20452;-86
2022/12/21 03:56:03;;;;;;;63.33;30.23;;;8.00;59.80;;;;;;4890831;29;20482;-86
2022/12/21 03:58:31;;;;;;;61.93;31.17;;;7.90;60.20;;;;;;4867044;29;20452;-86
2022/12/21 04:01:11;;;;;;;59.37;31.70;;;7.90;60.50;;;;;;4885198;29;20458;-87
2022/12/21 04:03:41;;;;;;;53.90;29.93;;;7.90;60.40;;;;;;4887415;29;20443;-87
2022/12/21 04:06:14;;;;;;;61.00;30.97;;;7.90;60.40;;;;;;4913440;29;20456;-88
2022/12/21 04:08:42;;;;;;;56.97;30.97;;;7.90;60.10;;;;;;4904551;29;20466;-86
2022/12/21 04:12:36;;;;;;;52.03;30.67;;;7.90;60.20;;;;;;4912980;29;20523;-86
2022/12/21 04:13:57;;;;;;;59.77;30.67;;;7.90;60.50;;;;;;4884216;29;20503;-84
2022/12/21 04:16:24;;;;;;;55.90;31.80;;;7.80;60.50;;;;;;4895594;29;20456;-87
2022/12/21 04:21:37;;;;;;;61.17;29.57;;;7.80;60.50;;;;;;4888139;29;20966;-86
2022/12/21 04:29:33;;;;;;;56.60;29.67;;;7.30;62.80;;;;;;4915054;29;21066;-87
2022/12/21 04:32:00;;;;;;;47.27;25.90;;;7.50;62.30;;;;;;4870854;29;20458;-87
2022/12/21 04:34:27;;;;;;;49.67;26.80;;;7.50;62.10;;;;;;4927346;28;20484;-86
2022/12/21 04:39:39;;;;;;;54.17;27.67;;;7.70;61.50;;;;;;4920034;29;20512;-87
2022/12/21 04:42:06;;;;;;;52.60;27.00;;;7.50;61.80;;;;;;4897212;29;20514;-87
2022/12/21 04:44:33;;;;;;;56.63;30.03;;;7.50;62.20;;;;;;4913217;29;20483;-86
2022/12/21 04:47:00;;;;;;;54.30;29.40;;;7.50;62.10;;;;;;4921445;29;20451;-87
2022/12/21 04:49:27;;;;;;;55.87;26.73;;;7.50;62.30;;;;;;4905178;29;20463;-86
2022/12/21 04:51:55;;;;;;;53.87;27.53;;;7.50;62.30;;;;;;4905592;29;20463;-87
2022/12/21 04:54:23;;;;;;;50.57;24.50;;;7.30;62.90;;;;;;4897848;29;20479;-86
2022/12/21 04:56:49;;;;;;;55.57;27.70;;;7.30;63.00;;;;;;4896773;29;20503;-86
2022/12/21 04:59:16;;;;;;;53.60;28.47;;;7.40;62.80;;;;;;4913657;29;20474;-87
2022/12/21 05:01:43;;;;;;;57.97;28.10;;;7.60;62.30;;;;;;4895800;29;20448;-86
2022/12/21 05:04:11;;;;;;;56.83;28.17;;;7.70;61.70;;;;;;4915417;29;20491;-87
2022/12/21 05:06:38;;;;;;;52.30;28.43;;;7.80;61.60;;;;;;4927510;28;20463;-87
2022/12/21 05:09:06;;;;;;;58.17;27.63;;;7.80;61.00;;;;;;4904317;29;20589;-87
2022/12/21 05:11:34;;;;;;;59.07;31.20;;;7.80;61.20;;;;;;4903177;29;20459;-86
2022/12/21 05:14:01;;;;;;;71.63;32.37;;;7.80;61.20;;;;;;4912391;29;20591;-87
2022/12/21 05:16:28;;;;;;;59.17;30.70;;;7.70;61.60;;;;;;4920696;29;20471;-86
2022/12/21 05:18:56;;;;;;;61.40;32.47;;;7.70;62.00;;;;;;4912055;29;20988;-86
2022/12/21 05:21:23;;;;;;;54.00;30.33;;;7.60;62.00;;;;;;4898511;29;20442;-86
2022/12/21 05:23:50;;;;;;;54.53;30.00;;;7.70;62.20;;;;;;4927937;29;20471;-86
2022/12/21 05:26:19;;;;;;;52.73;30.53;;;7.70;62.10;;;;;;4916540;29;20466;-86
2022/12/21 05:28:47;;;;;;;49.23;30.13;;;7.60;62.20;;;;;;4904533;29;20447;-87
2022/12/21 05:31:15;;;;;;;56.60;29.23;;;7.70;62.20;;;;;;4879775;29;20450;-87
2022/12/21 05:33:42;;;;;;;54.20;28.43;;;7.80;61.90;;;;;;4904062;29;20447;-87
2022/12/21 05:36:11;;;;;;;51.63;28.30;;;7.80;61.80;;;;;;4892281;29;20460;-87
2022/12/21 05:38:38;;;;;;;52.77;28.60;;;7.90;61.50;;;;;;4882543;29;22341;-87
2022/12/21 05:41:05;;;;;;;63.77;32.03;;;7.80;62.00;;;;;;4891256;29;20463;-86
2022/12/21 05:43:34;;;;;;;57.07;29.13;;;7.80;62.10;;;;;;4908921;29;20458;-86
2022/12/21 05:46:01;;;;;;;60.67;31.17;;;7.80;62.00;;;;;;4904851;29;20455;-87
2022/12/21 05:48:29;;;;;;;59.80;31.87;;;7.70;62.10;;;;;;4877823;29;20467;-87
2022/12/21 05:50:56;;;;;;;55.10;30.90;;;7.70;62.40;;;;;;4876658;29;20538;-85
2022/12/21 05:53:22;;;;;;;55.40;29.80;;;7.80;62.40;;;;;;4898615;29;20456;-85
2022/12/21 05:55:51;;;;;;;47.30;28.13;;;7.80;62.10;;;;;;4916548;29;20614;-87
2022/12/21 05:58:19;;;;;;;57.37;31.73;;;7.90;61.80;;;;;;4900537;29;20489;-84
2022/12/21 06:00:47;;;;;;;60.67;30.67;;;7.90;61.90;;;;;;4898192;29;20556;-87
2022/12/21 06:03:14;;;;;;;56.47;30.50;;;7.80;61.90;;;;;;4910437;29;20451;-87
2022/12/21 06:05:41;;;;;;;60.87;30.43;;;7.80;62.20;;;;;;4914819;29;20476;-86
2022/12/21 06:08:09;;;;;;;63.70;33.33;;;7.70;62.80;;;;;;4915450;29;20463;-86
2022/12/21 06:10:37;;;;;;;59.40;32.90;;;7.80;62.50;;;;;;4898736;29;20479;-85
2022/12/21 06:13:04;;;;;;;60.37;30.80;;;8.00;62.10;;;;;;4922888;29;20485;-87
2022/12/21 06:15:31;;;;;;;55.10;30.07;;;8.00;61.80;;;;;;4900872;29;20497;-84
2022/12/21 06:17:59;;;;;;;54.07;31.20;;;7.90;61.70;;;;;;4878387;29;20455;-87
2022/12/21 06:20:26;;;;;;;56.97;31.00;;;7.70;62.50;;;;;;4887775;29;20969;-86
2022/12/21 06:22:53;;;;;;;62.87;31.53;;;7.70;63.00;;;;;;4916217;29;20850;-86
2022/12/21 06:25:20;;;;;;;122.97;52.30;;;7.80;63.10;;;;;;4930825;28;20474;-85
2022/12/21 06:27:47;;;;;;;122.33;51.47;;;7.90;62.90;;;;;;4900505;29;20444;-85
2022/12/21 06:30:14;;;;;;;114.40;50.90;;;7.70;63.10;;;;;;4889620;29;20458;-86
2022/12/21 06:32:41;;;;;;;124.17;50.33;;;7.70;63.00;;;;;;4906196;29;20451;-87
2022/12/21 06:35:10;;;;;;;149.50;56.90;;;7.70;63.50;;;;;;4891411;29;20486;-86
2022/12/21 06:37:37;;;;;;;114.57;49.77;;;7.80;62.80;;;;;;4931767;28;21025;-87
2022/12/21 06:40:04;;;;;;;106.33;42.90;;;7.90;62.50;;;;;;4891198;29;20566;-86
2022/12/21 06:42:31;;;;;;;76.13;40.23;;;7.80;62.80;;;;;;4916389;29;20469;-87
2022/12/21 06:44:58;;;;;;;69.00;37.73;;;7.70;63.00;;;;;;4901875;29;20483;-87
2022/12/21 06:47:25;;;;;;;112.50;51.27;;;7.80;62.70;;;;;;4895314;29;20467;-86
2022/12/21 06:49:52;;;;;;;77.27;37.67;;;7.60;63.20;;;;;;4929720;28;20462;-87
2022/12/21 06:52:20;;;;;;;61.90;35.03;;;7.60;63.80;;;;;;4903742;29;20492;-87
2022/12/21 06:54:47;;;;;;;63.30;31.87;;;7.60;63.90;;;;;;4908072;29;20552;-86
2022/12/21 06:57:14;;;;;;;61.07;33.93;;;7.80;63.30;;;;;;4901952;29;20447;-87
2022/12/21 06:59:41;;;;;;;55.57;34.57;;;8.00;62.80;;;;;;4873102;29;20510;-86
2022/12/21 07:02:09;;;;;;;63.17;33.40;;;8.00;62.40;;;;;;4883677;29;20454;-87
2022/12/21 07:04:36;;;;;;;55.10;28.70;;;8.00;62.10;;;;;;4913505;29;20484;-87
2022/12/21 07:07:03;;;;;;;60.63;30.07;;;7.80;62.60;;;;;;4922733;29;20456;-87
2022/12/21 07:09:32;;;;;;;60.80;30.77;;;7.70;63.30;;;;;;4917463;29;20989;-87
2022/12/21 07:11:59;;;;;;;55.20;29.50;;;7.70;64.60;;;;;;4898662;29;20464;-87
2022/12/21 07:14:25;;;;;;;70.87;31.77;;;7.70;64.10;;;;;;4890350;29;20486;-87
2022/12/21 07:16:52;;;;;;;53.97;30.63;;;7.80;64.90;;;;;;4914465;29;20683;-88
2022/12/21 07:19:19;;;;;;;63.60;31.50;;;7.90;63.70;;;;;;4885736;29;20474;-84
2022/12/21 07:21:46;;;;;;;56.40;33.83;;;7.90;63.30;;;;;;4883714;29;20463;-87
2022/12/21 07:24:13;;;;;;;66.70;30.27;;;8.00;63.40;;;;;;4886367;29;20527;-87
2022/12/21 07:26:41;;;;;;;52.83;31.20;;;8.10;63.30;;;;;;4885005;29;20455;-87
2022/12/21 07:29:11;;;;;;;61.40;30.70;;;8.30;63.00;;;;;;4867817;29;20773;-87
2022/12/21 07:31:38;;;;;;;48.40;28.00;;;8.30;62.40;;;;;;4889631;29;20466;-87
2022/12/21 07:34:05;;;;;;;58.67;31.03;;;8.10;62.40;;;;;;4890515;29;20494;-87
2022/12/21 07:36:32;;;;;;;62.20;34.00;;;7.90;63.60;;;;;;4904690;29;20875;-87
2022/12/21 07:38:59;;;;;;;68.67;32.80;;;7.70;64.90;;;;;;4905838;29;20462;-87
2022/12/21 07:41:25;;;;;;;63.23;34.97;;;7.90;64.60;;;;;;4913971;29;20455;-87
2022/12/21 07:43:54;;;;;;;76.33;37.60;;;8.00;64.60;;;;;;4898724;29;20471;-87
2022/12/21 07:46:39;;;;;;;61.73;31.60;;;8.00;64.60;;;;;;4889890;29;20446;-87
2022/12/21 07:49:09;;;;;;;61.50;31.17;;;8.20;64.20;;;;;;4914560;28;20578;-87
2022/12/21 07:51:36;;;;;;;68.23;36.90;;;8.30;63.50;;;;;;4909777;29;20474;-87
2022/12/21 07:54:03;;;;;;;82.90;42.67;;;8.20;63.60;;;;;;4897049;29;20499;-87
2022/12/21 07:56:30;;;;;;;114.70;54.57;;;8.20;63.60;;;;;;4896629;29;20499;-87
2022/12/21 07:58:59;;;;;;;101.07;47.17;;;8.20;63.90;;;;;;4887862;29;20463;-86
2022/12/21 08:01:26;;;;;;;81.03;42.03;;;8.30;63.90;;;;;;4929020;28;20946;-85
2022/12/21 08:03:57;;;;;;;76.60;42.10;;;8.40;63.50;;;;;;4911957;29;20506;-87
2022/12/21 08:06:24;;;;;;;81.30;41.10;;;8.50;64.00;;;;;;4889063;29;20503;-87
2022/12/21 08:08:51;;;;;;;77.93;42.97;;;8.60;63.00;;;;;;4902503;29;20459;-86
2022/12/21 08:11:19;;;;;;;69.93;39.93;;;8.60;62.60;;;;;;4884199;29;20473;-86
2022/12/21 08:13:47;;;;;;;73.00;41.87;;;8.50;62.90;;;;;;4904477;29;22327;-86
2022/12/21 08:16:18;;;;;;;73.47;41.20;;;8.50;63.90;;;;;;4928710;29;20957;-87
2022/12/21 08:18:45;;;;;;;80.23;41.97;;;8.60;62.80;;;;;;4885654;29;20941;-86
2022/12/21 08:21:13;;;;;;;96.23;43.33;;;8.50;62.70;;;;;;4897231;29;20447;-87
2022/12/21 08:23:40;;;;;;;99.50;43.40;;;8.50;63.20;;;;;;4883565;29;20822;-86
2022/12/21 08:26:10;;;;;;;87.40;48.47;;;8.50;62.70;;;;;;4915915;29;20547;-87
2022/12/21 08:28:37;;;;;;;106.97;48.17;;;8.60;62.50;;;;;;4889347;29;20466;-86
2022/12/21 08:31:06;;;;;;;86.67;43.00;;;8.60;62.40;;;;;;4919735;29;20452;-87
2022/12/21 08:33:34;;;;;;;74.83;40.77;;;8.60;62.70;;;;;;4911164;29;20456;-87
2022/12/21 08:36:01;;;;;;;60.43;34.37;;;8.60;62.60;;;;;;4928218;29;20480;-87
2022/12/21 08:38:28;;;;;;;55.63;31.53;;;8.60;62.90;;;;;;4881064;29;20455;-87
2022/12/21 08:41:01;;;;;;;55.80;27.73;;;8.60;62.80;;;;;;4913591;29;20459;-86
2022/12/21 08:43:28;;;;;;;63.27;30.27;;;8.70;62.90;;;;;;4889647;29;20447;-86
2022/12/21 08:45:55;;;;;;;49.67;29.17;;;8.60;62.80;;;;;;4912806;29;20447;-87
2022/12/21 08:48:22;;;;;;;52.47;27.43;;;8.40;63.90;;;;;;4886413;29;20452;-86
2022/12/21 08:50:52;;;;;;;48.50;29.43;;;8.30;64.80;;;;;;4889149;29;20450;-86
2022/12/21 08:53:19;;;;;;;49.17;27.77;;;8.30;64.50;;;;;;4883176;29;20792;-86
2022/12/21 08:55:48;;;;;;;43.23;21.63;;;8.40;64.50;;;;;;4912915;29;20482;-86
2022/12/21 08:58:15;;;;;;;14.83;9.60;;;8.30;65.10;;;;;;4897635;29;20462;-85
2022/12/21 09:00:42;;;;;;;11.80;6.90;;;8.20;72.40;;;;;;4926062;29;20564;-86
2022/12/21 09:03:10;;;;;;;8.27;6.50;;;8.40;74.00;;;;;;4898321;29;20545;-86
2022/12/21 09:05:37;;;;;;;126.97;55.53;;;8.90;75.90;;;;;;4912329;29;20460;-87
2022/12/21 09:08:06;;;;;;;92.37;45.83;;;8.90;70.50;;;;;;4873192;29;21023;-86
2022/12/21 09:10:33;;;;;;;79.37;40.13;;;8.90;68.30;;;;;;4899961;29;20459;-87
2022/12/21 09:13:01;;;;;;;68.73;35.47;;;8.90;66.90;;;;;;4890700;29;20527;-86
2022/12/21 09:15:28;;;;;;;59.40;33.97;;;9.00;66.30;;;;;;4916378;29;20953;-87
2022/12/21 09:17:57;;;;;;;56.47;32.50;;;8.90;65.30;;;;;;4909244;29;20470;-86
2022/12/21 09:20:24;;;;;;;64.60;34.20;;;8.80;65.70;;;;;;4909410;29;20512;-86
2022/12/21 09:22:51;;;;;;;58.17;33.10;;;8.70;67.60;;;;;;4907327;29;20957;-87
2022/12/21 09:25:19;;;;;;;64.50;34.60;;;8.80;67.30;;;;;;4894734;29;20475;-87
2022/12/21 09:27:46;;;;;;;71.17;38.90;;;8.80;66.70;;;;;;4900869;29;20911;-87
2022/12/21 09:30:13;;;;;;;69.43;40.33;;;8.80;66.70;;;;;;4920062;29;21016;-87
2022/12/21 09:32:40;;;;;;;66.37;37.20;;;8.70;66.50;;;;;;4906956;29;21234;-86
2022/12/21 09:35:07;;;;;;;72.73;39.90;;;8.80;66.50;;;;;;4902572;29;20483;-86
2022/12/21 09:37:34;;;;;;;77.47;39.90;;;8.70;66.40;;;;;;4901653;29;20471;-86
2022/12/21 09:40:01;;;;;;;76.23;38.97;;;8.70;66.30;;;;;;4865842;29;20536;-86
2022/12/21 09:42:38;;;;;;;84.07;42.93;;;8.80;66.10;;;;;;4900246;29;20466;-87
2022/12/21 09:45:18;;;;;;;74.10;41.07;;;8.80;65.60;;;;;;4916742;29;20475;-87
2022/12/21 09:47:53;;;;;;;71.33;41.50;;;8.80;66.00;;;;;;4917078;29;20465;-85
2022/12/21 09:50:23;;;;;;;80.73;41.83;;;8.90;65.90;;;;;;4898568;29;20470;-86
2022/12/21 09:52:55;;;;;;;65.83;38.93;;;8.90;65.80;;;;;;4932191;28;20455;-87
2022/12/21 09:55:25;;;;;;;94.40;47.67;;;8.80;65.90;;;;;;4929829;28;20483;-87
2022/12/21 09:57:55;;;;;;;106.30;54.90;;;8.90;65.90;;;;;;4918033;29;20543;-87
2022/12/21 10:00:24;;;;;;;116.00;53.43;;;8.80;67.20;;;;;;4907351;29;20466;-87
2022/12/21 10:03:24;;;;;;;122.83;57.77;;;8.80;67.80;;;;;;4916081;29;20452;-87
2022/12/21 10:06:37;;;;;;;97.30;50.07;;;8.80;67.80;;;;;;4890500;29;20554;-87
2022/12/21 10:09:19;;;;;;;84.17;48.53;;;8.70;67.40;;;;;;4871911;29;20510;-87
2022/12/21 10:12:03;;;;;;;104.57;53.37;;;8.80;68.10;;;;;;4913675;29;21477;-86
2022/12/21 10:14:41;;;;;;;77.90;44.80;;;8.90;68.10;;;;;;4914073;29;20485;-87
2022/12/21 10:17:27;;;;;;;81.67;45.27;;;8.70;70.10;;;;;;4899684;29;20574;-87
2022/12/21 10:20:02;;;;;;;76.80;43.07;;;8.80;69.70;;;;;;4888093;29;20472;-87
2022/12/21 10:22:32;;;;;;;91.67;47.37;;;8.90;69.80;;;;;;4891528;29;20458;-87
2022/12/21 10:25:02;;;;;;;94.03;48.50;;;9.00;69.50;;;;;;4931484;28;20494;-86
2022/12/21 10:27:34;;;;;;;91.20;50.77;;;9.00;68.80;;;;;;4891876;29;20874;-87
2022/12/21 10:30:04;;;;;;;83.57;46.23;;;9.10;68.70;;;;;;4913159;29;20582;-85
2022/12/21 10:32:34;;;;;;;92.07;49.77;;;9.10;68.20;;;;;;4881440;29;20459;-87
2022/12/21 10:35:17;;;;;;;89.17;47.20;;;9.20;67.10;;;;;;4895416;29;20466;-86
2022/12/21 10:37:47;;;;;;;82.20;45.20;;;9.20;67.20;;;;;;4900619;29;20551;-86
2022/12/21 10:40:14;;;;;;;87.60;47.07;;;9.20;67.50;;;;;;4929488;29;20455;-87
2022/12/21 10:42:43;;;;;;;70.17;40.97;;;9.30;67.20;;;;;;4891679;29;20481;-87
2022/12/21 10:45:13;;;;;;;43.40;25.77;;;9.30;68.50;;;;;;4901985;29;20514;-86
2022/12/21 10:47:43;;;;;;;58.90;33.20;;;9.50;69.40;;;;;;4897856;29;20590;-86
2022/12/21 10:50:15;;;;;;;35.90;20.07;;;9.60;69.40;;;;;;4893604;29;20547;-87
2022/12/21 10:52:44;;;;;;;38.27;23.30;;;9.60;72.40;;;;;;4911255;29;20736;-87
2022/12/21 10:55:32;;;;;;;26.47;17.73;;;9.70;73.20;;;;;;4929069;28;20474;-87
2022/12/21 10:58:13;;;;;;;19.63;12.03;;;10.00;72.50;;;;;;4916858;29;20884;-87
2022/12/21 11:00:48;;;;;;;26.70;13.33;;;10.30;72.70;;;;;;4931476;29;20828;-86
2022/12/21 11:03:24;;;;;;;24.30;12.93;;;10.50;74.70;;;;;;4929997;29;20463;-86
2022/12/21 11:05:51;;;;;;;21.17;12.03;;;10.70;74.50;;;;;;4917639;29;20466;-86
2022/12/21 11:08:24;;;;;;;30.10;17.90;;;10.90;75.00;;;;;;4883766;29;20976;-86
2022/12/21 11:10:53;;;;;;;20.80;12.43;;;11.10;74.30;;;;;;4906883;29;20467;-85
2022/12/21 11:13:22;;;;;;;20.73;11.90;;;11.10;75.90;;;;;;4876252;29;20546;-85
2022/12/21 11:16:02;;;;;;;28.00;12.63;;;11.20;76.50;;;;;;4931390;28;20537;-86
2022/12/21 11:18:41;;;;;;;16.50;10.97;;;11.50;74.90;;;;;;4887498;29;20467;-86
2022/12/21 11:21:27;;;;;;;26.33;13.20;;;11.60;74.30;;;;;;4910574;29;20996;-86
2022/12/21 11:23:56;;;;;;;20.43;12.70;;;11.70;75.00;;;;;;4898513;29;20483;-86
2022/12/21 11:26:28;;;;;;;23.30;11.80;;;11.80;74.40;;;;;;4897075;29;20447;-87
2022/12/21 11:29:01;;;;;;;22.23;13.40;;;11.80;75.30;;;;;;4898114;29;20473;-86
2022/12/21 11:31:31;;;;;;;37.13;22.57;;;12.00;75.00;;;;;;4893775;29;20452;-86
2022/12/21 11:33:58;;;;;;;105.93;57.03;;;11.90;73.70;;;;;;4911637;29;20511;-87
2022/12/21 11:36:25;;;;;;;70.50;42.00;;;11.80;70.90;;;;;;4899761;29;20474;-86
2022/12/21 11:38:52;;;;;;;82.77;46.40;;;11.60;70.10;;;;;;4899754;29;20452;-86
2022/12/21 11:41:24;;;;;;;70.37;46.07;;;11.40;70.90;;;;;;4885276;29;20707;-87
2022/12/21 11:43:51;;;;;;;79.73;50.50;;;11.20;70.50;;;;;;4913115;29;20463;-86
2022/12/21 11:46:37;;;;;;;65.43;36.23;;;11.20;70.30;;;;;;4897798;29;20765;-87
2022/12/21 11:49:29;;;;;;;60.60;35.40;;;11.30;69.80;;;;;;4906631;29;20542;-86
2022/12/21 11:52:02;;;;;;;54.87;31.73;;;11.50;70.20;;;;;;4900200;29;20448;-87
2022/12/21 11:54:39;;;;;;;55.90;34.00;;;11.70;70.80;;;;;;4911465;29;20557;-86
2022/12/21 11:57:20;;;;;;;48.13;30.03;;;11.80;70.50;;;;;;4929435;28;20505;-84
2022/12/21 12:00:05;;;;;;;51.73;31.30;;;11.90;70.80;;;;;;4911824;29;20810;-86
2022/12/21 12:03:06;;;;;;;60.30;32.80;;;12.00;71.50;;;;;;4928432;29;20442;-87
2022/12/21 12:05:40;;;;;;;47.33;29.67;;;12.10;71.30;;;;;;4900606;29;20468;-87
2022/12/21 12:08:17;;;;;;;47.70;30.27;;;12.30;70.90;;;;;;4897809;29;20963;-85
2022/12/21 12:10:59;;;;;;;50.97;31.47;;;12.40;70.60;;;;;;4904704;29;20470;-87
2022/12/21 12:13:41;;;;;;;51.33;29.10;;;12.40;71.50;;;;;;4884904;29;20464;-87
2022/12/21 12:16:18;;;;;;;23.83;16.57;;;12.50;71.20;;;;;;4903998;29;20481;-85
2022/12/21 12:18:59;;;;;;;19.17;13.67;;;12.50;73.20;;;;;;4911617;29;20471;-87
2022/12/21 12:21:33;;;;;;;21.30;12.13;;;12.50;73.70;;;;;;4920804;29;20463;-87
2022/12/21 12:24:22;;;;;;;16.27;10.77;;;12.50;74.60;;;;;;4913375;29;20551;-85
2022/12/21 12:27:00;;;;;;;29.97;16.03;;;12.60;75.00;;;;;;4920296;29;20471;-86
2022/12/21 12:29:52;;;;;;;25.90;15.20;;;12.80;74.70;;;;;;4873519;29;20450;-87
2022/12/21 12:32:33;;;;;;;34.57;21.17;;;12.90;73.70;;;;;;4918572;29;20540;-86
2022/12/21 12:35:38;;;;;;;16.23;11.60;;;12.80;75.30;;;;;;4897903;29;20565;-86
2022/12/21 12:38:14;;;;;;;17.43;11.43;;;12.90;74.30;;;;;;4898657;29;20824;-86
2022/12/21 12:40:51;;;;;;;40.80;29.73;;;13.00;73.60;;;;;;4884212;29;20554;-86
2022/12/21 12:43:27;;;;;;;31.87;20.27;;;13.00;74.20;;;;;;4883748;29;20455;-86
2022/12/21 12:46:03;;;;;;;27.90;14.73;;;13.10;73.90;;;;;;4922949;29;20454;-86
2022/12/21 12:48:41;;;;;;;19.43;11.87;;;13.00;74.20;;;;;;4927343;28;20459;-86
2022/12/21 12:51:14;;;;;;;17.50;10.40;;;12.80;75.90;;;;;;4887552;29;20974;-85
2022/12/21 12:53:50;;;;;;;18.70;11.93;;;12.90;76.20;;;;;;4910775;29;20462;-86
2022/12/21 12:56:25;;;;;;;12.13;8.63;;;13.20;75.10;;;;;;4918165;29;20455;-87
2022/12/21 12:59:00;;;;;;;11.77;9.23;;;13.20;74.70;;;;;;4897024;29;20474;-86
2022/12/21 13:01:32;;;;;;;57.50;32.60;;;13.30;74.90;;;;;;4920915;29;20451;-86
2022/12/21 13:04:22;;;;;;;25.70;16.37;;;13.40;72.60;;;;;;4914729;29;20476;-85
2022/12/21 13:06:58;;;;;;;11.70;9.23;;;13.50;72.30;;;;;;4889793;29;21123;-86
2022/12/21 13:09:35;;;;;;;13.53;10.50;;;13.60;73.10;;;;;;4904840;29;20461;-86
2022/12/21 13:12:10;;;;;;;43.37;26.60;;;13.60;73.50;;;;;;4914618;29;20455;-86